N8767 KCOS-KSLC
Flight info
| Callsign | N8767 |
|---|---|
| Flight time | 1h 15m |
| Altitude | 36000 |
| Route | DCT DRAKE V83 PUB/N0460F360 DCT HBU/N0458F380 DCT HELPR JAZZZ1 |
| Aircraft | B737/M-SDE2E3FGHIRWXY/LB1 |
Departure
| Time | 2026-04-24 19:47 |
|---|---|
| Airport | City of Colorado Springs Municipal Airport (KCOS) |
Arrival
| Time | 2026-04-24 21:02 |
|---|---|
| Airport | Salt Lake City International Airport (KSLC) |
| Time | Latitude | Longitude | Altitude | Speed | Heading |
|---|---|---|---|---|---|
| 2026-04-24 19:14 | 38.80690 | -104.72015 | 6157 ft | 0 kts | 133° |
| 2026-04-24 19:30 | 38.80687 | -104.72010 | 6161 ft | 3 kts | 133° |
| 2026-04-24 19:31 | 38.80672 | -104.71990 | 6156 ft | 0 kts | 133° |
| 2026-04-24 19:38 | 38.80670 | -104.71987 | 6156 ft | 1 kts | 133° |
| 2026-04-24 19:39 | 38.80655 | -104.71967 | 6158 ft | 4 kts | 135° |
| 2026-04-24 19:39 | 38.80631 | -104.71928 | 6161 ft | 7 kts | 116° |
| 2026-04-24 19:39 | 38.80622 | -104.71861 | 6155 ft | 9 kts | 92° |
| 2026-04-24 19:39 | 38.80623 | -104.71775 | 6156 ft | 10 kts | 74° |
| 2026-04-24 19:40 | 38.80681 | -104.71730 | 6156 ft | 11 kts | 5° |
| 2026-04-24 19:40 | 38.80755 | -104.71731 | 6158 ft | 11 kts | 356° |
| 2026-04-24 19:40 | 38.80834 | -104.71734 | 6159 ft | 11 kts | 2° |
| 2026-04-24 19:40 | 38.80913 | -104.71731 | 6160 ft | 12 kts | 2° |
| 2026-04-24 19:41 | 38.80996 | -104.71728 | 6162 ft | 12 kts | 360° |
| 2026-04-24 19:41 | 38.81079 | -104.71728 | 6163 ft | 12 kts | 360° |
| 2026-04-24 19:41 | 38.81159 | -104.71730 | 6164 ft | 11 kts | 359° |
| 2026-04-24 19:41 | 38.81240 | -104.71730 | 6165 ft | 12 kts | 0° |
| 2026-04-24 19:42 | 38.81325 | -104.71730 | 6167 ft | 13 kts | 0° |
| 2026-04-24 19:42 | 38.81415 | -104.71730 | 6172 ft | 13 kts | 0° |
| 2026-04-24 19:42 | 38.81510 | -104.71730 | 6171 ft | 14 kts | 360° |
| 2026-04-24 19:42 | 38.81608 | -104.71730 | 6173 ft | 15 kts | 0° |
| 2026-04-24 19:43 | 38.81712 | -104.71731 | 6173 ft | 15 kts | 1° |
| 2026-04-24 19:43 | 38.81812 | -104.71730 | 6175 ft | 14 kts | 0° |
| 2026-04-24 19:43 | 38.81908 | -104.71730 | 6176 ft | 13 kts | 0° |
| 2026-04-24 19:43 | 38.82006 | -104.71730 | 6178 ft | 14 kts | 359° |
| 2026-04-24 19:44 | 38.82105 | -104.71730 | 6179 ft | 14 kts | 0° |
| 2026-04-24 19:44 | 38.82189 | -104.71729 | 6181 ft | 7 kts | 2° |
| 2026-04-24 19:44 | 38.82207 | -104.71724 | 6181 ft | 2 kts | 20° |
| 2026-04-24 19:44 | 38.82216 | -104.71715 | 6181 ft | 3 kts | 39° |
| 2026-04-24 19:45 | 38.82242 | -104.71672 | 6182 ft | 8 kts | 59° |
| 2026-04-24 19:45 | 38.82240 | -104.71599 | 6184 ft | 10 kts | 144° |
| 2026-04-24 19:45 | 38.82173 | -104.71591 | 6181 ft | 10 kts | 181° |
| 2026-04-24 19:45 | 38.82107 | -104.71591 | 6179 ft | 10 kts | 180° |
| 2026-04-24 19:46 | 38.81889 | -104.71591 | 6176 ft | 63 kts | 180° |
| 2026-04-24 19:46 | 38.81234 | -104.71592 | 6165 ft | 123 kts | 180° |
| 2026-04-24 19:46 | 38.80220 | -104.71579 | 6200 ft | 165 kts | 179° |
| 2026-04-24 19:46 | 38.78987 | -104.71583 | 6584 ft | 187 kts | 180° |
| 2026-04-24 19:47 | 38.77613 | -104.71607 | 7023 ft | 205 kts | 184° |
| 2026-04-24 19:47 | 38.76153 | -104.71669 | 7690 ft | 207 kts | 183° |
| 2026-04-24 19:47 | 38.74759 | -104.71717 | 8718 ft | 199 kts | 184° |
| 2026-04-24 19:47 | 38.73292 | -104.71673 | 9044 ft | 227 kts | 169° |
| 2026-04-24 19:48 | 38.72168 | -104.70842 | 9374 ft | 253 kts | 136° |
| 2026-04-24 19:48 | 38.71163 | -104.68828 | 9763 ft | 285 kts | 122° |
| 2026-04-24 19:48 | 38.69336 | -104.63896 | 10542 ft | 335 kts | 118° |
| 2026-04-24 19:49 | 38.67176 | -104.58128 | 10967 ft | 386 kts | 118° |
| 2026-04-24 19:49 | 38.64731 | -104.51761 | 12089 ft | 406 kts | 118° |
| 2026-04-24 19:50 | 38.59749 | -104.43115 | 14340 ft | 411 kts | 155° |
| 2026-04-24 19:50 | 38.57097 | -104.41826 | 15156 ft | 408 kts | 171° |
| 2026-04-24 19:51 | 38.51455 | -104.41723 | 16733 ft | 410 kts | 186° |
| 2026-04-24 19:51 | 38.48584 | -104.41926 | 17464 ft | 415 kts | 186° |
| 2026-04-24 19:52 | 38.42780 | -104.42270 | 18811 ft | 425 kts | 186° |
| 2026-04-24 19:52 | 38.39818 | -104.42412 | 19480 ft | 428 kts | 186° |
| 2026-04-24 19:52 | 38.36885 | -104.42955 | 20097 ft | 425 kts | 202° |
| 2026-04-24 19:52 | 38.34303 | -104.44694 | 20785 ft | 419 kts | 221° |
| 2026-04-24 19:53 | 38.32277 | -104.47312 | 21473 ft | 414 kts | 237° |
| 2026-04-24 19:53 | 38.30922 | -104.50521 | 22114 ft | 413 kts | 251° |
| 2026-04-24 19:53 | 38.30315 | -104.57739 | 23322 ft | 416 kts | 274° |
| 2026-04-24 19:54 | 38.30569 | -104.61418 | 23868 ft | 418 kts | 275° |
| 2026-04-24 19:54 | 38.30860 | -104.65094 | 24425 ft | 418 kts | 275° |
| 2026-04-24 19:54 | 38.31150 | -104.68719 | 25003 ft | 417 kts | 275° |
| 2026-04-24 19:54 | 38.31436 | -104.72389 | 25540 ft | 416 kts | 275° |
| 2026-04-24 19:55 | 38.31623 | -104.74866 | 25875 ft | 417 kts | 275° |
| 2026-04-24 19:55 | 38.31976 | -104.79741 | 26497 ft | 418 kts | 275° |
| 2026-04-24 19:55 | 38.32235 | -104.83431 | 26955 ft | 418 kts | 275° |
| 2026-04-24 19:55 | 38.32489 | -104.87128 | 27372 ft | 419 kts | 275° |
| 2026-04-24 19:56 | 38.32739 | -104.90808 | 27857 ft | 416 kts | 275° |
| 2026-04-24 19:56 | 38.32985 | -104.94461 | 28453 ft | 412 kts | 275° |
| 2026-04-24 19:56 | 38.33228 | -104.98078 | 29157 ft | 405 kts | 275° |
| 2026-04-24 19:56 | 38.33461 | -105.01575 | 29918 ft | 398 kts | 275° |
| 2026-04-24 19:57 | 38.33693 | -105.05065 | 30453 ft | 394 kts | 275° |
| 2026-04-24 19:57 | 38.33923 | -105.08537 | 30804 ft | 395 kts | 275° |
| 2026-04-24 19:57 | 38.34153 | -105.12030 | 31081 ft | 396 kts | 274° |
| 2026-04-24 19:57 | 38.34383 | -105.15528 | 31450 ft | 395 kts | 274° |
| 2026-04-24 19:58 | 38.34609 | -105.18999 | 31863 ft | 393 kts | 274° |
| 2026-04-24 19:58 | 38.34834 | -105.22457 | 32266 ft | 391 kts | 274° |
| 2026-04-24 19:58 | 38.35058 | -105.25907 | 32633 ft | 390 kts | 275° |
| 2026-04-24 19:58 | 38.35279 | -105.29349 | 32942 ft | 390 kts | 275° |
| 2026-04-24 19:59 | 38.35500 | -105.32786 | 33228 ft | 390 kts | 274° |
| 2026-04-24 19:59 | 38.35719 | -105.36232 | 33570 ft | 390 kts | 274° |
| 2026-04-24 19:59 | 38.35939 | -105.39670 | 33886 ft | 389 kts | 274° |
| 2026-04-24 19:59 | 38.36154 | -105.43054 | 34131 ft | 389 kts | 274° |
| 2026-04-24 20:00 | 38.36370 | -105.46493 | 34368 ft | 389 kts | 274° |
| 2026-04-24 20:00 | 38.36585 | -105.49930 | 34576 ft | 390 kts | 274° |
| 2026-04-24 20:00 | 38.36800 | -105.53373 | 34803 ft | 390 kts | 274° |
| 2026-04-24 20:00 | 38.37013 | -105.56818 | 35030 ft | 390 kts | 274° |
| 2026-04-24 20:01 | 38.37226 | -105.60269 | 35227 ft | 391 kts | 274° |
| 2026-04-24 20:01 | 38.37439 | -105.63723 | 35451 ft | 391 kts | 274° |
| 2026-04-24 20:01 | 38.37650 | -105.67175 | 35666 ft | 391 kts | 274° |
| 2026-04-24 20:01 | 38.37860 | -105.70620 | 35869 ft | 388 kts | 274° |
| 2026-04-24 20:02 | 38.37997 | -105.72888 | 35831 ft | 389 kts | 274° |
| 2026-04-24 20:02 | 38.38484 | -105.80971 | 35876 ft | 392 kts | 274° |
| 2026-04-24 20:03 | 38.38894 | -105.87845 | 35880 ft | 391 kts | 274° |
| 2026-04-24 20:03 | 38.39297 | -105.94738 | 35931 ft | 390 kts | 274° |
| 2026-04-24 20:04 | 38.39684 | -106.01322 | 35916 ft | 392 kts | 274° |
| 2026-04-24 20:04 | 38.40084 | -106.08250 | 35908 ft | 392 kts | 274° |
| 2026-04-24 20:05 | 38.40479 | -106.15136 | 35922 ft | 392 kts | 274° |
| 2026-04-24 20:05 | 38.40871 | -106.22055 | 35910 ft | 391 kts | 274° |
| 2026-04-24 20:06 | 38.41258 | -106.28966 | 35893 ft | 391 kts | 274° |
| 2026-04-24 20:06 | 38.41642 | -106.35891 | 35870 ft | 392 kts | 273° |
| 2026-04-24 20:07 | 38.41969 | -106.41836 | 35894 ft | 393 kts | 273° |
| 2026-04-24 20:07 | 38.42397 | -106.49727 | 35902 ft | 392 kts | 273° |
| 2026-04-24 20:08 | 38.42769 | -106.56672 | 35892 ft | 393 kts | 273° |
| 2026-04-24 20:08 | 38.43136 | -106.63571 | 35896 ft | 392 kts | 273° |
| 2026-04-24 20:09 | 38.43500 | -106.70506 | 35887 ft | 392 kts | 273° |
| 2026-04-24 20:09 | 38.43860 | -106.77445 | 35900 ft | 392 kts | 273° |
| 2026-04-24 20:10 | 38.44216 | -106.84384 | 35894 ft | 393 kts | 273° |
| 2026-04-24 20:10 | 38.44568 | -106.91340 | 35960 ft | 393 kts | 273° |
| 2026-04-24 20:11 | 38.44916 | -106.98247 | 35964 ft | 393 kts | 273° |
| 2026-04-24 20:11 | 38.45911 | -107.05088 | 35962 ft | 395 kts | 284° |
| 2026-04-24 20:12 | 38.48093 | -107.11556 | 35943 ft | 399 kts | 292° |
| 2026-04-24 20:12 | 38.50580 | -107.17836 | 35941 ft | 399 kts | 292° |
| 2026-04-24 20:13 | 38.53042 | -107.24064 | 35924 ft | 400 kts | 292° |
| 2026-04-24 20:13 | 38.55527 | -107.30409 | 35895 ft | 400 kts | 292° |
| 2026-04-24 20:14 | 38.57809 | -107.36264 | 35861 ft | 399 kts | 292° |
| 2026-04-24 20:14 | 38.59230 | -107.39921 | 35849 ft | 398 kts | 292° |
| 2026-04-24 20:15 | 38.61691 | -107.46264 | 35850 ft | 398 kts | 292° |
| 2026-04-24 20:15 | 38.64146 | -107.52606 | 35829 ft | 398 kts | 292° |
| 2026-04-24 20:16 | 38.66514 | -107.58736 | 35821 ft | 398 kts | 292° |
| 2026-04-24 20:17 | 38.67372 | -107.60959 | 35800 ft | 398 kts | 292° |
| 2026-04-24 20:17 | 38.71038 | -107.70481 | 35817 ft | 397 kts | 292° |
| 2026-04-24 20:18 | 38.73478 | -107.76833 | 35800 ft | 397 kts | 292° |
| 2026-04-24 20:18 | 38.75915 | -107.83193 | 35868 ft | 398 kts | 292° |
| 2026-04-24 20:19 | 38.78333 | -107.89516 | 35879 ft | 398 kts | 292° |
| 2026-04-24 20:19 | 38.80765 | -107.95888 | 35900 ft | 398 kts | 292° |
| 2026-04-24 20:20 | 38.83197 | -108.02273 | 35895 ft | 398 kts | 292° |
| 2026-04-24 20:20 | 38.85624 | -108.08662 | 35905 ft | 399 kts | 292° |
| 2026-04-24 20:21 | 38.88053 | -108.15066 | 35895 ft | 399 kts | 292° |
| 2026-04-24 20:21 | 38.90464 | -108.21436 | 35862 ft | 399 kts | 292° |
| 2026-04-24 20:22 | 38.92886 | -108.27850 | 35831 ft | 399 kts | 291° |
| 2026-04-24 20:22 | 38.95255 | -108.34135 | 35833 ft | 399 kts | 291° |
| 2026-04-24 20:23 | 38.97662 | -108.40539 | 35851 ft | 398 kts | 291° |
| 2026-04-24 20:23 | 39.00070 | -108.46954 | 35876 ft | 398 kts | 291° |
| 2026-04-24 20:24 | 39.02475 | -108.53378 | 35883 ft | 399 kts | 291° |
| 2026-04-24 20:24 | 39.04878 | -108.59810 | 35874 ft | 399 kts | 291° |
| 2026-04-24 20:25 | 39.07261 | -108.66203 | 35872 ft | 399 kts | 291° |
| 2026-04-24 20:25 | 39.09652 | -108.72637 | 35857 ft | 398 kts | 291° |
| 2026-04-24 20:26 | 39.12036 | -108.79061 | 35780 ft | 399 kts | 291° |
| 2026-04-24 20:26 | 39.14426 | -108.85498 | 35802 ft | 398 kts | 291° |
| 2026-04-24 20:27 | 39.16810 | -108.91952 | 35789 ft | 399 kts | 291° |
| 2026-04-24 20:27 | 39.19196 | -108.98422 | 35790 ft | 400 kts | 291° |
| 2026-04-24 20:28 | 39.21580 | -109.04902 | 35785 ft | 400 kts | 291° |
| 2026-04-24 20:28 | 39.22535 | -109.07501 | 35784 ft | 400 kts | 291° |
| 2026-04-24 20:29 | 39.24396 | -109.12570 | 35774 ft | 400 kts | 291° |
| 2026-04-24 20:29 | 39.26776 | -109.19067 | 35783 ft | 400 kts | 291° |
| 2026-04-24 20:30 | 39.29150 | -109.25565 | 35816 ft | 400 kts | 291° |
| 2026-04-24 20:30 | 39.31524 | -109.32074 | 35796 ft | 401 kts | 291° |
| 2026-04-24 20:31 | 39.33897 | -109.38599 | 35805 ft | 401 kts | 291° |
| 2026-04-24 20:31 | 39.36253 | -109.45086 | 35789 ft | 402 kts | 291° |
| 2026-04-24 20:32 | 39.38622 | -109.51625 | 35793 ft | 401 kts | 291° |
| 2026-04-24 20:32 | 39.40986 | -109.58158 | 35797 ft | 401 kts | 291° |
| 2026-04-24 20:33 | 39.43319 | -109.64627 | 35786 ft | 401 kts | 291° |
| 2026-04-24 20:33 | 39.45665 | -109.71152 | 35803 ft | 400 kts | 291° |
| 2026-04-24 20:34 | 39.48010 | -109.77682 | 35812 ft | 399 kts | 290° |
| 2026-04-24 20:34 | 39.50343 | -109.84198 | 35808 ft | 400 kts | 291° |
| 2026-04-24 20:35 | 39.52672 | -109.90722 | 35803 ft | 402 kts | 290° |
| 2026-04-24 20:35 | 39.55021 | -109.97302 | 35811 ft | 403 kts | 291° |
| 2026-04-24 20:36 | 39.57367 | -110.03895 | 35816 ft | 403 kts | 290° |
| 2026-04-24 20:36 | 39.59716 | -110.10511 | 35817 ft | 403 kts | 290° |
| 2026-04-24 20:37 | 39.62056 | -110.17117 | 35805 ft | 403 kts | 291° |
| 2026-04-24 20:37 | 39.64386 | -110.23708 | 35813 ft | 402 kts | 291° |
| 2026-04-24 20:38 | 39.66702 | -110.30279 | 35823 ft | 404 kts | 290° |
| 2026-04-24 20:38 | 39.69035 | -110.36915 | 35816 ft | 405 kts | 290° |
| 2026-04-24 20:39 | 39.71376 | -110.43563 | 35812 ft | 405 kts | 290° |
| 2026-04-24 20:39 | 39.73703 | -110.50229 | 35834 ft | 405 kts | 290° |
| 2026-04-24 20:40 | 39.76047 | -110.56873 | 35832 ft | 404 kts | 291° |
| 2026-04-24 20:40 | 39.78549 | -110.63417 | 35867 ft | 404 kts | 292° |
| 2026-04-24 20:41 | 39.81065 | -110.69904 | 35718 ft | 406 kts | 292° |
| 2026-04-24 20:41 | 39.82336 | -110.73208 | 35114 ft | 406 kts | 292° |
| 2026-04-24 20:41 | 39.83586 | -110.76470 | 34274 ft | 404 kts | 292° |
| 2026-04-24 20:42 | 39.84839 | -110.79753 | 33369 ft | 403 kts | 292° |
| 2026-04-24 20:42 | 39.86082 | -110.83023 | 32330 ft | 404 kts | 292° |
| 2026-04-24 20:42 | 39.87326 | -110.86301 | 31350 ft | 404 kts | 291° |
| 2026-04-24 20:42 | 39.88571 | -110.89582 | 30351 ft | 405 kts | 291° |
| 2026-04-24 20:43 | 39.89820 | -110.92879 | 29202 ft | 406 kts | 292° |
| 2026-04-24 20:43 | 39.91065 | -110.96175 | 28008 ft | 406 kts | 292° |
| 2026-04-24 20:43 | 39.92315 | -110.99482 | 26876 ft | 407 kts | 292° |
| 2026-04-24 20:43 | 39.93564 | -111.02782 | 25917 ft | 405 kts | 293° |
| 2026-04-24 20:44 | 39.94804 | -111.06062 | 25032 ft | 401 kts | 293° |
| 2026-04-24 20:44 | 39.96031 | -111.09316 | 24143 ft | 399 kts | 293° |
| 2026-04-24 20:44 | 39.97235 | -111.12512 | 23245 ft | 398 kts | 294° |
| 2026-04-24 20:44 | 39.98451 | -111.15747 | 22267 ft | 395 kts | 294° |
| 2026-04-24 20:45 | 39.99657 | -111.18952 | 21381 ft | 392 kts | 293° |
| 2026-04-24 20:45 | 40.00849 | -111.22131 | 20532 ft | 389 kts | 293° |
| 2026-04-24 20:45 | 40.02027 | -111.25277 | 19666 ft | 385 kts | 293° |
| 2026-04-24 20:45 | 40.03198 | -111.28402 | 18822 ft | 381 kts | 293° |
| 2026-04-24 20:46 | 40.04357 | -111.31500 | 17948 ft | 378 kts | 293° |
| 2026-04-24 20:46 | 40.05507 | -111.34582 | 17012 ft | 375 kts | 293° |
| 2026-04-24 20:46 | 40.06643 | -111.37623 | 16205 ft | 371 kts | 293° |
| 2026-04-24 20:46 | 40.07768 | -111.40630 | 15614 ft | 361 kts | 293° |
| 2026-04-24 20:47 | 40.08821 | -111.43449 | 15506 ft | 342 kts | 292° |
| 2026-04-24 20:47 | 40.09834 | -111.46173 | 15343 ft | 325 kts | 293° |
| 2026-04-24 20:47 | 40.10793 | -111.48752 | 15191 ft | 306 kts | 292° |
| 2026-04-24 20:47 | 40.11691 | -111.51175 | 15077 ft | 288 kts | 292° |
| 2026-04-24 20:48 | 40.12539 | -111.53474 | 14939 ft | 275 kts | 292° |
| 2026-04-24 20:48 | 40.13352 | -111.55684 | 14845 ft | 270 kts | 290° |
| 2026-04-24 20:48 | 40.14108 | -111.57923 | 14732 ft | 267 kts | 290° |
| 2026-04-24 20:48 | 40.14841 | -111.60126 | 14547 ft | 260 kts | 289° |
| 2026-04-24 20:49 | 40.15557 | -111.62271 | 14385 ft | 256 kts | 290° |
| 2026-04-24 20:49 | 40.16265 | -111.64388 | 14233 ft | 252 kts | 289° |
| 2026-04-24 20:49 | 40.16967 | -111.66445 | 14065 ft | 245 kts | 293° |
| 2026-04-24 20:49 | 40.17959 | -111.68234 | 13912 ft | 243 kts | 308° |
| 2026-04-24 20:50 | 40.19157 | -111.69727 | 13821 ft | 232 kts | 311° |
| 2026-04-24 20:50 | 40.20311 | -111.71078 | 13658 ft | 220 kts | 311° |
| 2026-04-24 20:50 | 40.21429 | -111.72384 | 13500 ft | 212 kts | 311° |
| 2026-04-24 20:50 | 40.22518 | -111.73666 | 13371 ft | 210 kts | 310° |
| 2026-04-24 20:51 | 40.23599 | -111.74946 | 13249 ft | 209 kts | 310° |
| 2026-04-24 20:51 | 40.24670 | -111.76218 | 13145 ft | 207 kts | 310° |
| 2026-04-24 20:51 | 40.25733 | -111.77485 | 13025 ft | 209 kts | 310° |
| 2026-04-24 20:51 | 40.26820 | -111.78785 | 12887 ft | 214 kts | 311° |
| 2026-04-24 20:52 | 40.27921 | -111.80102 | 12735 ft | 215 kts | 311° |
| 2026-04-24 20:52 | 40.29026 | -111.81423 | 12596 ft | 215 kts | 311° |
| 2026-04-24 20:52 | 40.30133 | -111.82744 | 12475 ft | 216 kts | 312° |
| 2026-04-24 20:52 | 40.31227 | -111.84055 | 12333 ft | 216 kts | 311° |
| 2026-04-24 20:53 | 40.32339 | -111.85389 | 12193 ft | 217 kts | 312° |
| 2026-04-24 20:53 | 40.33450 | -111.86722 | 12054 ft | 217 kts | 312° |
| 2026-04-24 20:53 | 40.34589 | -111.88028 | 11912 ft | 220 kts | 319° |
| 2026-04-24 20:53 | 40.35987 | -111.88919 | 11767 ft | 225 kts | 330° |
| 2026-04-24 20:54 | 40.37425 | -111.89736 | 11603 ft | 226 kts | 330° |
| 2026-04-24 20:54 | 40.38861 | -111.90572 | 11464 ft | 225 kts | 329° |
| 2026-04-24 20:54 | 40.40279 | -111.91405 | 11323 ft | 222 kts | 329° |
| 2026-04-24 20:54 | 40.41668 | -111.92226 | 11159 ft | 221 kts | 330° |
| 2026-04-24 20:55 | 40.43084 | -111.93056 | 10976 ft | 220 kts | 334° |
| 2026-04-24 20:55 | 40.44612 | -111.93445 | 10639 ft | 228 kts | 351° |
| 2026-04-24 20:55 | 40.46199 | -111.93640 | 10326 ft | 228 kts | 349° |
| 2026-04-24 20:55 | 40.47771 | -111.93836 | 10035 ft | 223 kts | 347° |
| 2026-04-24 20:56 | 40.49288 | -111.94025 | 9761 ft | 216 kts | 347° |
| 2026-04-24 20:56 | 40.50763 | -111.94201 | 9459 ft | 211 kts | 346° |
| 2026-04-24 20:56 | 40.52229 | -111.94369 | 9186 ft | 213 kts | 348° |
| 2026-04-24 20:56 | 40.53707 | -111.94540 | 8887 ft | 213 kts | 346° |
| 2026-04-24 20:57 | 40.55179 | -111.94708 | 8609 ft | 211 kts | 346° |
| 2026-04-24 20:57 | 40.56630 | -111.94879 | 8320 ft | 207 kts | 350° |
| 2026-04-24 20:57 | 40.58048 | -111.95045 | 8049 ft | 204 kts | 348° |
| 2026-04-24 20:57 | 40.59458 | -111.95211 | 7780 ft | 203 kts | 348° |
| 2026-04-24 20:58 | 40.60860 | -111.95375 | 7512 ft | 199 kts | 349° |
| 2026-04-24 20:58 | 40.62189 | -111.95528 | 7268 ft | 184 kts | 349° |
| 2026-04-24 20:58 | 40.63421 | -111.95672 | 7031 ft | 172 kts | 352° |
| 2026-04-24 20:58 | 40.64599 | -111.95812 | 6814 ft | 172 kts | 352° |
| 2026-04-24 20:59 | 40.65776 | -111.95950 | 6591 ft | 167 kts | 351° |
| 2026-04-24 20:59 | 40.66908 | -111.96082 | 6363 ft | 160 kts | 353° |
| 2026-04-24 20:59 | 40.68023 | -111.96212 | 6191 ft | 162 kts | 351° |
| 2026-04-24 20:59 | 40.69169 | -111.96345 | 5957 ft | 166 kts | 351° |
| 2026-04-24 21:00 | 40.70314 | -111.96476 | 5713 ft | 162 kts | 351° |
| 2026-04-24 21:00 | 40.71377 | -111.96601 | 5458 ft | 147 kts | 350° |
| 2026-04-24 21:00 | 40.72316 | -111.96719 | 5311 ft | 129 kts | 347° |
| 2026-04-24 21:00 | 40.73211 | -111.96817 | 5161 ft | 129 kts | 350° |
| 2026-04-24 21:01 | 40.74190 | -111.96932 | 4961 ft | 152 kts | 353° |
| 2026-04-24 21:01 | 40.74897 | -111.97014 | 4786 ft | 153 kts | 353° |
| 2026-04-24 21:01 | 40.76235 | -111.97164 | 4542 ft | 138 kts | 349° |
| 2026-04-24 21:01 | 40.77156 | -111.97277 | 4353 ft | 131 kts | 353° |
| 2026-04-24 21:02 | 40.78050 | -111.97374 | 4273 ft | 123 kts | 350° |
| 2026-04-24 21:02 | 40.78814 | -111.97477 | 4232 ft | 95 kts | 355° |
| 2026-04-24 21:02 | 40.79356 | -111.97536 | 4228 ft | 61 kts | 355° |
| 2026-04-24 21:02 | 40.79649 | -111.97570 | 4228 ft | 4 kts | 355° |
| 2026-04-24 21:03 | 40.79662 | -111.97568 | 4228 ft | 6 kts | 12° |
| 2026-04-24 21:03 | 40.79693 | -111.97533 | 4228 ft | 12 kts | 61° |
| 2026-04-24 21:03 | 40.79707 | -111.97401 | 4229 ft | 15 kts | 85° |
| 2026-04-24 21:03 | 40.79718 | -111.97264 | 4230 ft | 15 kts | 82° |
| 2026-04-24 21:04 | 40.79736 | -111.97134 | 4228 ft | 14 kts | 75° |
| 2026-04-24 21:04 | 40.79759 | -111.97011 | 4230 ft | 13 kts | 79° |
| 2026-04-24 21:04 | 40.79777 | -111.96893 | 4230 ft | 13 kts | 79° |
| 2026-04-24 21:04 | 40.79792 | -111.96777 | 4230 ft | 13 kts | 80° |
| 2026-04-24 21:05 | 40.79767 | -111.96678 | 4230 ft | 12 kts | 147° |
| 2026-04-24 21:05 | 40.79693 | -111.96623 | 4230 ft | 12 kts | 150° |
| 2026-04-24 21:05 | 40.79622 | -111.96569 | 4230 ft | 12 kts | 150° |
| 2026-04-24 21:05 | 40.79552 | -111.96516 | 4230 ft | 11 kts | 150° |
| 2026-04-24 21:06 | 40.79485 | -111.96465 | 4228 ft | 11 kts | 150° |
| 2026-04-24 21:06 | 40.79419 | -111.96415 | 4230 ft | 11 kts | 150° |
| 2026-04-24 21:06 | 40.79356 | -111.96367 | 4229 ft | 10 kts | 150° |
| 2026-04-24 21:06 | 40.79294 | -111.96320 | 4230 ft | 10 kts | 150° |
| 2026-04-24 21:07 | 40.79234 | -111.96269 | 4229 ft | 11 kts | 141° |
| 2026-04-24 21:07 | 40.79170 | -111.96200 | 4230 ft | 12 kts | 137° |
| 2026-04-24 21:07 | 40.79150 | -111.96094 | 4230 ft | 12 kts | 92° |
| 2026-04-24 21:07 | 40.79116 | -111.96006 | 4230 ft | 12 kts | 167° |
| 2026-04-24 21:08 | 40.79034 | -111.96004 | 4230 ft | 11 kts | 179° |
| 2026-04-24 21:08 | 40.78955 | -111.96003 | 4230 ft | 11 kts | 180° |
| 2026-04-24 21:08 | 40.78877 | -111.96004 | 4230 ft | 12 kts | 180° |
| 2026-04-24 21:08 | 40.78788 | -111.96004 | 4230 ft | 14 kts | 180° |
| 2026-04-24 21:09 | 40.78683 | -111.96004 | 4230 ft | 16 kts | 180° |
| 2026-04-24 21:09 | 40.78563 | -111.96004 | 4230 ft | 18 kts | 180° |
| 2026-04-24 21:09 | 40.78430 | -111.96004 | 4230 ft | 20 kts | 180° |
| 2026-04-24 21:09 | 40.78284 | -111.96004 | 4229 ft | 22 kts | 180° |
| 2026-04-24 21:10 | 40.78128 | -111.96003 | 4229 ft | 23 kts | 180° |
| 2026-04-24 21:10 | 40.77964 | -111.96004 | 4255 ft | 23 kts | 180° |
| 2026-04-24 21:10 | 40.77869 | -111.96019 | 4255 ft | 9 kts | 208° |
| 2026-04-24 21:10 | 40.77817 | -111.96065 | 4255 ft | 9 kts | 202° |
| 2026-04-24 21:11 | 40.77774 | -111.96031 | 4256 ft | 9 kts | 90° |
| 2026-04-24 21:11 | 40.77789 | -111.95957 | 4257 ft | 8 kts | 77° |
| 2026-04-24 21:11 | 40.77770 | -111.95918 | 4256 ft | 2 kts | 162° |
| 2026-04-24 21:11 | 40.77755 | -111.95915 | 4257 ft | 2 kts | 179° |
| 2026-04-24 21:12 | 40.77742 | -111.95915 | 4257 ft | 1 kts | 178° |
| 2026-04-24 21:12 | 40.77733 | -111.95915 | 4257 ft | 1 kts | 178° |
| 2026-04-24 21:12 | 40.77725 | -111.95915 | 4257 ft | 1 kts | 179° |
| 2026-04-24 21:12 | 40.77724 | -111.95914 | 4257 ft | 0 kts | 179° |